Time;durP1;ratioP1;P1;durP2;ratioP2;P2;SDS_P1;SDS_P2;PMS_P1;PMS_P2;Temp;Humidity;BMP_temperature;BMP_pressure;BME280_temperature;BME280_humidity;BME280_pressure;Samples;Min_cycle;Max_cycle;Signal;HPM_P1;HPM_P2
2023/09/10 00:01:40;;;;;;;6.85;6.00;;;16.20;1.00;;;;;;5042394;28;20495;-73
2023/09/10 00:04:06;;;;;;;6.72;5.85;;;16.20;1.00;;;;;;5031269;28;20094;-73
2023/09/10 00:06:32;;;;;;;6.80;5.93;;;16.10;1.00;;;;;;5049415;28;20032;-73
2023/09/10 00:08:58;;;;;;;7.47;6.28;;;16.10;1.00;;;;;;5023328;28;20078;-73
2023/09/10 00:11:25;;;;;;;5.93;5.22;;;16.10;1.00;;;;;;5030831;28;20660;-73
2023/09/10 00:13:50;;;;;;;10.13;5.97;;;16.10;1.00;;;;;;5039308;28;20041;-73
2023/09/10 00:16:16;;;;;;;7.88;6.45;;;16.10;1.00;;;;;;5048191;28;20403;-73
2023/09/10 00:18:42;;;;;;;6.53;5.72;;;16.00;1.00;;;;;;5024395;28;20039;-73
2023/09/10 00:21:07;;;;;;;6.63;5.95;;;16.00;1.00;;;;;;5028182;28;20063;-73
2023/09/10 00:23:33;;;;;;;6.95;5.78;;;16.00;1.00;;;;;;5048785;28;20035;-73
2023/09/10 00:25:59;;;;;;;7.55;6.50;;;16.00;1.00;;;;;;5033043;28;20780;-73
2023/09/10 00:28:24;;;;;;;8.25;7.28;;;16.00;1.00;;;;;;5046187;28;20112;-73
2023/09/10 00:30:53;;;;;;;7.45;6.60;;;16.00;1.00;;;;;;5033654;28;20132;-74
2023/09/10 00:33:19;;;;;;;7.78;7.05;;;16.00;1.00;;;;;;5030257;28;20679;-73
2023/09/10 00:35:45;;;;;;;6.90;6.20;;;16.00;1.00;;;;;;5048955;28;20398;-73
2023/09/10 00:38:11;;;;;;;8.35;7.40;;;16.00;1.00;;;;;;5030632;28;20567;-73
2023/09/10 00:40:36;;;;;;;7.88;6.68;;;15.90;1.00;;;;;;5033506;28;20037;-73
2023/09/10 00:43:02;;;;;;;8.23;7.03;;;15.90;1.00;;;;;;5038065;28;20045;-73
2023/09/10 00:45:29;;;;;;;9.38;7.63;;;15.90;1.00;;;;;;5030076;28;20391;-73
2023/09/10 00:47:55;;;;;;;10.15;7.55;;;15.80;1.00;;;;;;5050483;28;20044;-73
2023/09/10 00:50:22;;;;;;;9.00;7.53;;;15.80;1.00;;;;;;5029977;28;20051;-73
2023/09/10 00:52:54;;;;;;;8.80;7.07;;;15.80;1.00;;;;;;5031100;28;20163;-73
2023/09/10 00:55:22;;;;;;;7.55;6.53;;;15.80;1.00;;;;;;5031610;28;20048;-73
2023/09/10 00:57:49;;;;;;;7.00;5.25;;;15.70;1.00;;;;;;5043868;28;20059;-73
2023/09/10 01:00:15;;;;;;;5.97;5.10;;;15.70;1.00;;;;;;5026038;28;20403;-74
2023/09/10 01:02:44;;;;;;;6.00;5.15;;;15.80;1.00;;;;;;5045062;28;20087;-74
2023/09/10 01:05:17;;;;;;;7.05;5.63;;;15.70;1.00;;;;;;5031976;28;20104;-74
2023/09/10 01:07:44;;;;;;;8.75;7.45;;;15.60;1.00;;;;;;5015398;28;20049;-74
2023/09/10 01:10:10;;;;;;;8.65;7.32;;;15.60;1.00;;;;;;5019496;28;20043;-74
2023/09/10 01:13:00;;;;;;;8.38;6.72;;;15.50;1.00;;;;;;5041931;28;20056;-74
2023/09/10 01:15:48;;;;;;;7.78;5.43;;;15.50;1.00;;;;;;5037964;28;20044;-73
2023/09/10 01:18:20;;;;;;;8.70;6.78;;;15.50;1.00;;;;;;5049319;28;20032;-74
2023/09/10 01:20:54;;;;;;;7.43;6.53;;;15.40;1.00;;;;;;5030589;28;20033;-74
2023/09/10 01:23:52;;;;;;;6.70;6.10;;;15.50;1.00;;;;;;5025910;28;20037;-74
2023/09/10 01:26:18;;;;;;;6.53;5.93;;;15.50;1.00;;;;;;5020655;28;20545;-74
2023/09/10 01:28:44;;;;;;;5.90;5.40;;;15.40;1.00;;;;;;5033569;28;20076;-74
2023/09/10 01:31:10;;;;;;;5.90;5.40;;;15.40;1.00;;;;;;5031514;28;20075;-74
2023/09/10 01:33:41;;;;;;;5.82;5.30;;;15.40;1.00;;;;;;5028747;28;20483;-74
2023/09/10 01:36:26;;;;;;;6.80;6.05;;;15.40;1.00;;;;;;5033039;28;20410;-74
2023/09/10 01:39:21;;;;;;;7.35;6.65;;;15.40;1.00;;;;;;5022276;28;20061;-74
2023/09/10 01:41:48;;;;;;;7.38;6.68;;;15.40;1.00;;;;;;5043581;28;20090;-73
2023/09/10 01:44:15;;;;;;;7.43;6.50;;;15.30;1.00;;;;;;5049571;28;20542;-74
2023/09/10 01:46:42;;;;;;;6.93;6.22;;;15.30;1.00;;;;;;5032070;28;20068;-74
2023/09/10 01:49:08;;;;;;;7.95;6.60;;;15.20;1.00;;;;;;5048872;28;20036;-74
2023/09/10 01:51:34;;;;;;;7.20;6.53;;;15.20;1.00;;;;;;5049355;28;20047;-74
2023/09/10 01:53:59;;;;;;;7.60;6.80;;;15.10;1.00;;;;;;5048970;28;20553;-74
2023/09/10 01:56:25;;;;;;;8.35;7.15;;;15.10;1.00;;;;;;5026369;28;20475;-75
2023/09/10 01:58:50;;;;;;;8.98;8.07;;;15.20;1.00;;;;;;5040175;28;20032;-74
2023/09/10 02:01:16;;;;;;;9.52;8.48;;;15.10;1.00;;;;;;5026818;28;20055;-74
2023/09/10 02:03:42;;;;;;;9.45;8.45;;;15.10;1.00;;;;;;5026410;28;20610;-74
2023/09/10 02:06:08;;;;;;;11.15;8.63;;;15.10;1.00;;;;;;5032272;28;20071;-74
2023/09/10 02:08:33;;;;;;;11.15;9.80;;;15.10;1.00;;;;;;5054770;28;20036;-74
2023/09/10 02:11:03;;;;;;;13.93;10.98;;;15.10;1.00;;;;;;5054163;28;20507;-74
2023/09/10 02:13:29;;;;;;;16.17;11.63;;;15.00;1.00;;;;;;5053372;28;20097;-74
2023/09/10 02:15:54;;;;;;;14.25;11.13;;;15.10;1.00;;;;;;5043731;28;20040;-74
2023/09/10 02:18:21;;;;;;;17.52;10.75;;;15.00;1.00;;;;;;5052919;28;20427;-74
2023/09/10 02:20:47;;;;;;;13.60;10.52;;;15.10;1.00;;;;;;5032270;28;20089;-74
2023/09/10 02:23:13;;;;;;;15.73;11.48;;;15.00;1.00;;;;;;5047850;28;20044;-74
2023/09/10 02:25:38;;;;;;;13.23;10.82;;;15.10;1.00;;;;;;5043728;28;20396;-74
2023/09/10 02:28:04;;;;;;;15.38;11.07;;;15.10;4.90;;;;;;5026939;28;20048;-74
2023/09/10 02:30:30;;;;;;;13.70;10.45;;;15.00;10.30;;;;;;5026565;28;20076;-74
2023/09/10 02:32:56;;;;;;;13.93;11.00;;;15.10;18.70;;;;;;5021002;28;20116;-74
2023/09/10 02:35:22;;;;;;;12.48;10.20;;;15.10;18.30;;;;;;5044448;28;20040;-74
2023/09/10 02:37:48;;;;;;;10.98;9.27;;;15.10;21.90;;;;;;5036283;28;20045;-74
2023/09/10 02:40:13;;;;;;;12.55;9.40;;;15.10;27.10;;;;;;5045610;28;20410;-73
2023/09/10 02:42:39;;;;;;;11.15;9.23;;;15.10;28.80;;;;;;5033077;28;20418;-73
2023/09/10 02:45:06;;;;;;;12.15;9.50;;;15.00;31.00;;;;;;5047922;28;20052;-73
2023/09/10 02:47:31;;;;;;;9.63;7.25;;;15.10;32.70;;;;;;5030417;28;20040;-73
2023/09/10 02:49:57;;;;;;;8.32;7.40;;;15.00;33.80;;;;;;5030746;28;20047;-74
2023/09/10 02:52:26;;;;;;;9.55;7.57;;;15.00;30.40;;;;;;5045135;28;20165;-74
2023/09/10 02:54:52;;;;;;;9.07;7.47;;;15.00;28.10;;;;;;5032305;28;20032;-73
2023/09/10 02:57:18;;;;;;;8.48;7.45;;;15.00;25.70;;;;;;5027797;28;20109;-73
2023/09/10 02:59:43;;;;;;;8.35;6.93;;;15.00;21.70;;;;;;5031841;28;20854;-73
2023/09/10 03:02:09;;;;;;;7.75;6.95;;;14.90;19.40;;;;;;5031684;28;20048;-74
2023/09/10 03:04:35;;;;;;;8.27;6.70;;;14.90;18.60;;;;;;5031908;28;20044;-74
2023/09/10 03:07:01;;;;;;;9.43;7.25;;;14.90;17.20;;;;;;5031179;28;20044;-73
2023/09/10 03:09:27;;;;;;;12.75;8.02;;;14.90;17.70;;;;;;5043084;28;20056;-74
2023/09/10 03:11:53;;;;;;;8.88;7.65;;;14.80;20.00;;;;;;5024591;28;20040;-74
2023/09/10 03:14:19;;;;;;;7.45;6.68;;;14.80;19.80;;;;;;5033975;28;20044;-74
2023/09/10 03:16:44;;;;;;;10.07;7.60;;;14.90;18.90;;;;;;5044265;28;20464;-74
2023/09/10 03:19:11;;;;;;;10.98;7.07;;;14.80;18.70;;;;;;5027266;28;20079;-74
2023/09/10 03:21:37;;;;;;;12.55;8.55;;;14.80;18.00;;;;;;5045483;28;20101;-74
2023/09/10 03:24:03;;;;;;;12.95;8.20;;;14.80;16.60;;;;;;5044737;28;20041;-74
2023/09/10 03:26:28;;;;;;;9.73;7.70;;;14.80;15.40;;;;;;5028203;28;20036;-73
2023/09/10 03:28:54;;;;;;;12.52;8.52;;;14.80;13.70;;;;;;5029193;28;20399;-74
2023/09/10 03:31:20;;;;;;;11.25;8.75;;;14.70;12.70;;;;;;5026981;28;20044;-74
2023/09/10 03:33:45;;;;;;;11.77;9.30;;;14.80;12.80;;;;;;5028143;28;20025;-74
2023/09/10 03:36:11;;;;;;;10.50;8.68;;;14.70;12.90;;;;;;5027766;28;20163;-74
2023/09/10 03:38:37;;;;;;;10.85;8.95;;;14.70;12.10;;;;;;5029884;28;20561;-74
2023/09/10 03:41:02;;;;;;;11.88;9.85;;;14.70;11.70;;;;;;5035423;28;20045;-73
2023/09/10 03:43:28;;;;;;;13.02;10.15;;;14.60;14.30;;;;;;5033199;28;20040;-74
2023/09/10 03:45:54;;;;;;;12.85;9.38;;;14.50;18.70;;;;;;5029827;28;20044;-73
2023/09/10 03:48:19;;;;;;;12.95;9.35;;;14.60;26.00;;;;;;5045178;28;20524;-73
2023/09/10 03:50:45;;;;;;;14.02;10.32;;;14.60;24.20;;;;;;5052670;28;20502;-74
2023/09/10 03:53:11;;;;;;;14.00;10.57;;;14.60;23.30;;;;;;5052235;28;20043;-74
2023/09/10 03:55:36;;;;;;;11.25;9.07;;;14.50;24.70;;;;;;5035819;28;20064;-73
2023/09/10 03:58:02;;;;;;;12.95;9.65;;;14.50;26.00;;;;;;5028380;28;20032;-74
2023/09/10 04:00:28;;;;;;;10.65;8.40;;;14.40;27.60;;;;;;5048556;28;20051;-73
2023/09/10 04:02:54;;;;;;;13.40;9.88;;;14.40;30.40;;;;;;5047397;28;20082;-73
2023/09/10 04:05:19;;;;;;;13.20;10.32;;;14.40;34.50;;;;;;5044209;28;20044;-73
2023/09/10 04:07:45;;;;;;;11.98;9.75;;;14.40;37.60;;;;;;5053061;28;20093;-74
2023/09/10 04:10:11;;;;;;;15.32;11.25;;;14.40;39.20;;;;;;5030895;28;20446;-73
2023/09/10 04:12:36;;;;;;;12.70;9.82;;;14.40;42.40;;;;;;5034036;28;20037;-74
2023/09/10 04:15:03;;;;;;;12.57;9.98;;;14.40;46.40;;;;;;5026894;28;20029;-73
2023/09/10 04:17:29;;;;;;;14.88;10.57;;;14.30;48.40;;;;;;5041292;28;20043;-73
2023/09/10 04:19:57;;;;;;;15.23;11.23;;;14.40;49.10;;;;;;5039892;28;20511;-74
2023/09/10 04:22:23;;;;;;;16.15;11.65;;;14.30;53.10;;;;;;5050454;28;20041;-74
2023/09/10 04:24:49;;;;;;;14.82;11.63;;;14.30;59.50;;;;;;5049931;28;20044;-74
2023/09/10 04:27:14;;;;;;;16.52;11.32;;;14.30;62.40;;;;;;5050683;28;20051;-74
2023/09/10 04:29:40;;;;;;;16.20;10.93;;;14.30;64.10;;;;;;5060378;28;20486;-74
2023/09/10 04:32:06;;;;;;;21.73;12.15;;;14.30;64.50;;;;;;5034599;28;20048;-74
2023/09/10 04:34:31;;;;;;;17.05;13.10;;;14.30;69.70;;;;;;5026059;28;20075;-74
2023/09/10 04:36:57;;;;;;;15.20;12.07;;;14.30;76.00;;;;;;5035066;28;20037;-74
2023/09/10 04:39:23;;;;;;;14.55;11.77;;;14.40;78.60;;;;;;5039524;28;20044;-74
2023/09/10 04:41:49;;;;;;;18.10;11.02;;;14.40;80.60;;;;;;5039705;28;20041;-74
2023/09/10 04:44:16;;;;;;;14.20;9.85;;;14.40;81.60;;;;;;5032126;28;20055;-74
2023/09/10 04:46:41;;;;;;;13.25;10.40;;;14.40;80.60;;;;;;5034384;28;20109;-74
2023/09/10 04:49:07;;;;;;;10.45;8.68;;;14.50;79.00;;;;;;5048359;28;20040;-74
2023/09/10 04:51:33;;;;;;;10.35;8.75;;;14.40;77.40;;;;;;5049436;28;20076;-74
2023/09/10 04:53:58;;;;;;;11.48;8.52;;;14.40;75.10;;;;;;5033503;28;20040;-74
2023/09/10 04:56:24;;;;;;;11.85;9.10;;;14.40;75.00;;;;;;5028606;28;20056;-74
2023/09/10 04:58:50;;;;;;;12.40;8.38;;;14.40;75.70;;;;;;5028242;28;20029;-74
2023/09/10 05:01:15;;;;;;;13.43;10.10;;;14.40;74.70;;;;;;5048778;28;20101;-74
2023/09/10 05:03:41;;;;;;;13.93;10.27;;;14.40;74.80;;;;;;5049623;28;20043;-74
2023/09/10 05:06:08;;;;;;;17.38;11.35;;;14.40;77.20;;;;;;5032691;28;20660;-73
2023/09/10 05:08:37;;;;;;;11.70;9.00;;;14.40;76.70;;;;;;5045472;28;20102;-74
2023/09/10 05:11:02;;;;;;;12.45;9.27;;;14.40;76.10;;;;;;5038761;28;20380;-74
2023/09/10 05:13:28;;;;;;;13.38;10.50;;;14.40;74.70;;;;;;5033034;28;20102;-74
2023/09/10 05:15:54;;;;;;;14.82;11.30;;;14.40;71.90;;;;;;5048385;28;20108;-74
2023/09/10 05:18:20;;;;;;;15.98;11.30;;;14.40;76.00;;;;;;5030859;28;20040;-73
2023/09/10 05:20:48;;;;;;;12.02;9.60;;;14.40;79.50;;;;;;5043470;28;20045;-73
2023/09/10 05:23:13;;;;;;;13.07;9.63;;;14.40;81.00;;;;;;5029396;28;20127;-74
2023/09/10 05:25:39;;;;;;;21.05;11.43;;;14.40;79.90;;;;;;5030165;28;20144;-75
2023/09/10 05:28:05;;;;;;;12.88;9.77;;;14.50;80.40;;;;;;5043537;28;20043;-74
2023/09/10 05:30:31;;;;;;;13.20;10.48;;;14.50;81.60;;;;;;5038904;28;20051;-74
2023/09/10 05:32:57;;;;;;;12.60;9.50;;;14.50;79.90;;;;;;5028131;28;20049;-74
2023/09/10 05:35:23;;;;;;;14.43;10.65;;;14.50;78.00;;;;;;5042554;28;20048;-73
2023/09/10 05:37:49;;;;;;;12.65;9.55;;;14.60;76.60;;;;;;5031598;28;20418;-74
2023/09/10 05:40:14;;;;;;;11.32;8.70;;;14.60;79.30;;;;;;5030976;28;20055;-74
2023/09/10 05:42:40;;;;;;;11.88;9.32;;;14.60;80.90;;;;;;5023133;28;20540;-74
2023/09/10 05:45:06;;;;;;;12.63;9.57;;;14.60;81.00;;;;;;5033199;28;20417;-72
2023/09/10 05:47:32;;;;;;;13.82;9.82;;;14.60;80.70;;;;;;5060067;28;20039;-72
2023/09/10 05:50:00;;;;;;;13.48;10.05;;;14.80;80.60;;;;;;5047531;28;20032;-72
2023/09/10 05:52:25;;;;;;;13.85;10.27;;;14.80;80.60;;;;;;5046566;28;20115;-71
2023/09/10 05:54:51;;;;;;;12.85;9.45;;;14.90;83.80;;;;;;5020592;28;20131;-72
2023/09/10 05:57:17;;;;;;;13.75;10.20;;;15.00;90.10;;;;;;5014159;28;20041;-72
2023/09/10 05:59:42;;;;;;;15.57;10.30;;;15.10;93.80;;;;;;5037365;28;20033;-72
2023/09/10 06:02:08;;;;;;;14.57;10.88;;;15.20;97.70;;;;;;5031240;28;20460;-73
2023/09/10 06:04:34;;;;;;;13.50;11.13;;;15.30;99.90;;;;;;5026205;28;20122;-73
2023/09/10 06:07:03;;;;;;;12.48;9.93;;;15.50;99.90;;;;;;5025938;28;20410;-72
2023/09/10 06:09:29;;;;;;;12.10;10.27;;;15.60;99.90;;;;;;5034092;28;20040;-72
2023/09/10 06:11:55;;;;;;;15.10;11.18;;;15.80;99.90;;;;;;5051960;28;20049;-72
2023/09/10 06:14:21;;;;;;;15.82;11.68;;;15.90;99.90;;;;;;5041514;28;20047;-72
2023/09/10 06:16:47;;;;;;;13.32;10.80;;;16.00;99.90;;;;;;5048647;28;20441;-71
2023/09/10 06:19:14;;;;;;;15.70;11.38;;;16.10;99.90;;;;;;5026968;28;20033;-71
2023/09/10 06:21:40;;;;;;;11.85;9.60;;;16.20;99.90;;;;;;5021325;28;20040;-72
2023/09/10 06:24:06;;;;;;;12.88;9.95;;;16.40;99.90;;;;;;5050516;28;20094;-72
2023/09/10 06:26:32;;;;;;;12.55;10.00;;;16.30;99.90;;;;;;5031303;28;20413;-72
2023/09/10 06:28:58;;;;;;;15.18;10.43;;;16.50;99.90;;;;;;5027143;28;20460;-72
2023/09/10 06:31:23;;;;;;;15.63;11.85;;;16.50;97.30;;;;;;5046068;28;20193;-72
2023/09/10 06:33:49;;;;;;;19.27;13.30;;;16.50;90.30;;;;;;5024760;28;20060;-71
2023/09/10 06:36:15;;;;;;;18.27;13.80;;;16.60;75.40;;;;;;5032101;28;20840;-72
2023/09/10 06:38:47;;;;;;;20.58;15.68;;;16.60;60.40;;;;;;5022062;28;20784;-72
2023/09/10 06:41:17;;;;;;;23.80;17.65;;;16.60;47.70;;;;;;5031534;28;20101;-72
2023/09/10 06:43:43;;;;;;;25.40;17.15;;;16.70;40.00;;;;;;5046253;28;20049;-72
2023/09/10 06:46:09;;;;;;;28.23;20.85;;;16.70;37.20;;;;;;5041162;28;20045;-71
2023/09/10 06:48:37;;;;;;;26.85;19.23;;;16.80;30.00;;;;;;5042046;28;20040;-72
2023/09/10 06:51:03;;;;;;;29.13;19.80;;;16.90;24.70;;;;;;5050132;28;20121;-72
2023/09/10 06:53:32;;;;;;;25.30;17.48;;;17.00;19.60;;;;;;5044966;28;20086;-72
2023/09/10 06:55:57;;;;;;;24.40;18.10;;;17.10;13.70;;;;;;5051569;28;20051;-72
2023/09/10 06:58:23;;;;;;;24.88;19.20;;;17.20;9.40;;;;;;5041153;28;20037;-72
2023/09/10 07:00:49;;;;;;;31.52;21.75;;;17.30;8.30;;;;;;5021270;28;20406;-72
2023/09/10 07:03:15;;;;;;;31.85;21.85;;;17.30;8.90;;;;;;5019202;28;20040;-73
2023/09/10 07:05:42;;;;;;;29.20;21.48;;;17.40;10.80;;;;;;5020521;28;20520;-73
2023/09/10 07:08:10;;;;;;;32.40;22.05;;;17.50;12.30;;;;;;5030784;28;20032;-73
2023/09/10 07:10:37;;;;;;;31.15;22.23;;;17.50;12.50;;;;;;5026014;28;20048;-72
2023/09/10 07:13:07;;;;;;;29.75;21.67;;;17.60;13.80;;;;;;5023628;28;20051;-73
2023/09/10 07:15:34;;;;;;;28.92;22.00;;;17.70;13.70;;;;;;5034951;28;20048;-73
2023/09/10 07:18:00;;;;;;;31.30;21.67;;;17.90;11.90;;;;;;5029585;28;20854;-72
2023/09/10 07:20:26;;;;;;;35.28;24.55;;;18.00;9.90;;;;;;5043186;28;20040;-73
2023/09/10 07:22:51;;;;;;;32.45;23.17;;;18.10;10.00;;;;;;5047218;28;20534;-72
2023/09/10 07:25:17;;;;;;;32.90;23.70;;;18.20;3.70;;;;;;5041772;28;21571;-73
2023/09/10 07:27:42;;;;;;;31.70;23.15;;;18.40;1.00;;;;;;5041538;28;20038;-73
2023/09/10 07:30:08;;;;;;;32.60;24.23;;;18.50;1.00;;;;;;5033835;28;20636;-73
2023/09/10 07:32:34;;;;;;;34.67;23.65;;;18.60;1.00;;;;;;5024063;28;20507;-73
2023/09/10 07:35:00;;;;;;;35.53;24.63;;;18.70;1.00;;;;;;5041950;28;20036;-72
2023/09/10 07:37:25;;;;;;;36.67;26.17;;;18.90;1.00;;;;;;5054339;28;20047;-72
2023/09/10 07:39:51;;;;;;;40.33;27.30;;;19.00;1.00;;;;;;5031809;28;20426;-73
2023/09/10 07:42:16;;;;;;;38.22;26.50;;;19.10;1.00;;;;;;5047255;28;20040;-73
2023/09/10 07:44:42;;;;;;;35.45;26.02;;;19.20;1.00;;;;;;5051326;28;20169;-73
2023/09/10 07:47:08;;;;;;;35.25;25.35;;;19.30;1.00;;;;;;5031898;28;20052;-72
2023/09/10 07:49:34;;;;;;;33.42;25.30;;;19.40;1.00;;;;;;5032126;28;20066;-73
2023/09/10 07:52:03;;;;;;;37.88;26.75;;;19.60;1.00;;;;;;5030878;28;20041;-73
2023/09/10 07:54:29;;;;;;;35.03;26.15;;;19.70;1.00;;;;;;5026640;28;20036;-73
2023/09/10 07:56:55;;;;;;;35.65;26.25;;;19.80;1.00;;;;;;5033033;28;20033;-73
2023/09/10 07:59:21;;;;;;;33.90;25.52;;;20.00;1.00;;;;;;5050654;28;20044;-73
2023/09/10 08:01:46;;;;;;;33.28;24.33;;;20.00;1.00;;;;;;5030802;28;20940;-73
2023/09/10 08:04:12;;;;;;;32.42;23.33;;;20.20;1.00;;;;;;5049675;28;20048;-73
2023/09/10 08:06:38;;;;;;;31.58;22.25;;;20.30;1.00;;;;;;5036721;28;20143;-73
2023/09/10 08:09:05;;;;;;;26.58;20.90;;;20.40;1.00;;;;;;5038767;28;20125;-73
2023/09/10 08:11:31;;;;;;;29.13;21.38;;;20.50;1.00;;;;;;5031157;28;20063;-74
2023/09/10 08:13:56;;;;;;;28.33;20.90;;;20.70;1.00;;;;;;5034583;28;20044;-73
2023/09/10 08:16:22;;;;;;;29.38;21.10;;;20.80;1.00;;;;;;5025358;28;20033;-73
2023/09/10 08:18:48;;;;;;;26.27;19.80;;;21.00;99.90;;;;;;5025045;28;20529;-73
2023/09/10 08:21:13;;;;;;;26.10;19.85;;;21.10;99.90;;;;;;5044513;28;20075;-74
2023/09/10 08:23:39;;;;;;;24.27;17.67;;;21.20;99.90;;;;;;5029142;28;20529;-73
2023/09/10 08:26:05;;;;;;;24.50;19.27;;;21.30;99.90;;;;;;5042488;28;20445;-73
2023/09/10 08:28:30;;;;;;;23.13;18.92;;;21.40;99.90;;;;;;5038614;28;20040;-74
2023/09/10 08:30:57;;;;;;;27.98;19.38;;;21.50;99.90;;;;;;5043060;28;20049;-74
2023/09/10 08:33:25;;;;;;;26.40;19.45;;;21.60;99.90;;;;;;5044822;28;20415;-74
2023/09/10 08:35:51;;;;;;;20.85;17.38;;;21.70;99.90;;;;;;5037005;28;20573;-73
2023/09/10 08:38:17;;;;;;;21.02;16.75;;;21.80;99.90;;;;;;5048154;28;20048;-74
2023/09/10 08:41:02;;;;;;;20.55;16.13;;;22.00;99.90;;;;;;5051665;28;20125;-74
2023/09/10 08:43:55;;;;;;;18.38;14.93;;;22.10;45.40;;;;;;5032129;28;20481;-74
2023/09/10 08:46:25;;;;;;;17.75;14.10;;;22.20;1.00;;;;;;5032833;28;20277;-74
2023/09/10 08:48:52;;;;;;;20.30;14.15;;;22.30;1.00;;;;;;5024763;28;20037;-74
2023/09/10 08:51:18;;;;;;;16.98;12.90;;;22.40;1.00;;;;;;5030343;28;20116;-73
2023/09/10 08:53:45;;;;;;;15.50;12.60;;;22.60;1.00;;;;;;5029882;28;20443;-73
2023/09/10 08:56:12;;;;;;;21.23;14.52;;;22.70;1.00;;;;;;5042815;28;20162;-73
2023/09/10 08:58:38;;;;;;;17.15;12.68;;;22.80;99.90;;;;;;5045035;28;20047;-73
2023/09/10 09:01:04;;;;;;;15.93;12.90;;;22.90;99.90;;;;;;5022225;28;20107;-73
2023/09/10 09:03:30;;;;;;;15.23;11.75;;;23.00;99.90;;;;;;5026025;28;20796;-73
2023/09/10 09:06:02;;;;;;;14.52;11.82;;;23.20;99.90;;;;;;5048471;28;20044;-73
2023/09/10 09:08:33;;;;;;;14.77;12.00;;;23.30;99.90;;;;;;5042197;28;20405;-81
2023/09/10 09:11:05;;;;;;;13.88;9.73;;;23.40;99.90;;;;;;5034172;28;20048;-81
2023/09/10 09:13:40;;;;;;;13.10;9.57;;;23.50;99.90;;;;;;5028999;28;20037;-81
2023/09/10 09:16:07;;;;;;;12.70;9.35;;;23.70;99.90;;;;;;5034665;28;20033;-81
2023/09/10 09:18:35;;;;;;;13.68;10.90;;;23.90;99.90;;;;;;5051032;28;20060;-81
2023/09/10 09:21:11;;;;;;;14.63;11.18;;;24.10;99.90;;;;;;5041617;28;20050;-81
2023/09/10 09:23:53;;;;;;;15.23;11.80;;;24.20;99.90;;;;;;5041134;28;20402;-81
2023/09/10 09:26:21;;;;;;;15.27;11.90;;;24.40;99.90;;;;;;5040999;28;20484;-81
2023/09/10 09:28:48;;;;;;;14.85;11.48;;;24.60;99.90;;;;;;5043982;28;20505;-81
2023/09/10 09:31:14;;;;;;;15.27;12.43;;;24.90;99.90;;;;;;5054315;28;20150;-81
2023/09/10 09:33:40;;;;;;;14.13;11.30;;;25.20;99.90;;;;;;5034232;28;20131;-81
2023/09/10 09:36:10;;;;;;;15.27;11.38;;;26.40;50.10;;;;;;5032087;28;20052;-81
2023/09/10 09:38:47;;;;;;;18.20;10.60;;;27.60;1.00;;;;;;5030762;28;20068;-81
2023/09/10 09:41:16;;;;;;;14.18;10.65;;;28.90;1.00;;;;;;5033928;28;20036;-82
2023/09/10 09:43:43;;;;;;;13.05;10.30;;;29.90;1.00;;;;;;5050469;28;20071;-81
2023/09/10 09:46:08;;;;;;;12.05;9.57;;;30.70;1.00;;;;;;5034015;28;20125;-82
2023/09/10 09:48:34;;;;;;;11.38;9.73;;;31.20;1.00;;;;;;5050967;28;20118;-81
2023/09/10 09:51:03;;;;;;;14.73;10.52;;;31.80;1.00;;;;;;5049550;28;20154;-80
2023/09/10 09:53:33;;;;;;;8.75;7.85;;;32.20;1.00;;;;;;5036806;28;20398;-82
2023/09/10 09:56:05;;;;;;;10.20;9.20;;;32.80;1.00;;;;;;5030603;28;20480;-82
2023/09/10 09:58:32;;;;;;;10.85;8.68;;;33.10;1.00;;;;;;5032966;28;20063;-81
2023/09/10 10:00:58;;;;;;;10.23;8.45;;;33.30;1.00;;;;;;5046697;28;20029;-82
2023/09/10 10:03:24;;;;;;;11.32;8.10;;;33.50;1.00;;;;;;5049145;28;20035;-79
2023/09/10 10:05:53;;;;;;;10.25;7.50;;;33.90;1.00;;;;;;5026757;28;20033;-80
2023/09/10 10:08:24;;;;;;;9.18;7.70;;;34.40;1.00;;;;;;5044285;28;20055;-80
2023/09/10 10:10:50;;;;;;;11.15;7.93;;;34.80;1.00;;;;;;5046381;28;20563;-80
2023/09/10 10:13:23;;;;;;;11.88;8.20;;;35.00;1.00;;;;;;5032966;28;20132;-80
2023/09/10 10:15:51;;;;;;;7.72;6.93;;;35.40;1.00;;;;;;5033500;28;20033;-81
2023/09/10 10:18:18;;;;;;;7.53;6.72;;;35.90;1.00;;;;;;5033252;28;20086;-81
2023/09/10 10:20:49;;;;;;;9.25;7.65;;;36.40;1.00;;;;;;5050252;28;20044;-81
2023/09/10 10:23:19;;;;;;;10.38;8.52;;;36.80;1.00;;;;;;5033398;28;20071;-81
2023/09/10 10:25:46;;;;;;;8.70;7.80;;;36.80;1.00;;;;;;5031968;28;20036;-80
2023/09/10 10:28:13;;;;;;;8.57;7.68;;;36.80;1.00;;;;;;5033493;28;20048;-81
2023/09/10 10:30:44;;;;;;;7.40;6.28;;;37.00;1.00;;;;;;5049655;28;20055;-79
2023/09/10 10:33:12;;;;;;;6.95;6.25;;;37.30;1.00;;;;;;5032784;28;20052;-81
2023/09/10 10:35:43;;;;;;;8.93;6.90;;;37.60;1.00;;;;;;5022576;28;20040;-81
2023/09/10 10:38:11;;;;;;;6.40;5.75;;;37.90;1.00;;;;;;5075390;28;20056;-81
2023/09/10 10:40:39;;;;;;;6.20;5.60;;;38.10;1.00;;;;;;5026416;28;20051;-81
2023/09/10 10:43:12;;;;;;;7.70;6.00;;;38.20;1.00;;;;;;5033240;28;20037;-81
2023/09/10 10:45:38;;;;;;;8.07;5.15;;;38.30;1.00;;;;;;5048671;28;20115;-81
2023/09/10 10:48:12;;;;;;;10.57;5.80;;;38.50;1.00;;;;;;5040360;28;20036;-82
2023/09/10 10:50:44;;;;;;;6.93;5.30;;;38.70;1.00;;;;;;5034078;28;20495;-81
2023/09/10 10:53:24;;;;;;;6.10;5.35;;;38.90;1.00;;;;;;5022657;28;20398;-80
2023/09/10 10:55:52;;;;;;;6.22;5.63;;;39.10;1.00;;;;;;5049065;28;20032;-81
2023/09/10 10:58:25;;;;;;;6.40;5.05;;;39.40;1.00;;;;;;5049982;28;20044;-81
2023/09/10 11:00:57;;;;;;;7.65;5.00;;;39.60;1.00;;;;;;5032465;28;20117;-81
2023/09/10 11:03:25;;;;;;;5.85;5.10;;;39.80;1.00;;;;;;5033099;28;20040;-81
2023/09/10 11:06:04;;;;;;;6.07;5.28;;;39.80;1.00;;;;;;5032715;28;20044;-81
2023/09/10 11:08:33;;;;;;;6.20;5.20;;;39.80;1.00;;;;;;5040440;28;20043;-81
2023/09/10 11:11:01;;;;;;;9.65;5.05;;;39.60;1.00;;;;;;5032424;28;20430;-82
2023/09/10 11:13:27;;;;;;;10.00;4.88;;;39.60;1.00;;;;;;5025487;28;20098;-82
2023/09/10 11:16:05;;;;;;;7.32;5.00;;;39.70;1.00;;;;;;5049298;28;20033;-82
2023/09/10 11:18:37;;;;;;;7.85;4.70;;;39.90;1.00;;;;;;5026451;28;20040;-82
2023/09/10 11:21:13;;;;;;;6.93;4.85;;;40.30;1.00;;;;;;5049642;28;20460;-82
2023/09/10 11:23:54;;;;;;;6.13;4.32;;;40.40;1.00;;;;;;5042123;28;20047;-82
2023/09/10 11:26:20;;;;;;;6.15;4.93;;;40.50;1.00;;;;;;5033083;28;20053;-82
2023/09/10 11:28:47;;;;;;;6.38;4.15;;;40.80;1.00;;;;;;5049070;28;20048;-82
2023/09/10 11:31:38;;;;;;;8.15;4.50;;;40.90;1.00;;;;;;5048739;28;20048;-81
2023/09/10 11:34:23;;;;;;;5.90;4.30;;;41.10;1.00;;;;;;5032536;28;20135;-82
2023/09/10 11:37:06;;;;;;;14.80;4.53;;;41.60;1.00;;;;;;5013171;28;20110;-82
2023/09/10 11:39:36;;;;;;;7.28;4.43;;;41.60;1.00;;;;;;5029247;28;20483;-83
2023/09/10 11:42:04;;;;;;;7.20;4.43;;;41.30;1.00;;;;;;5033809;28;20044;-81
2023/09/10 11:44:29;;;;;;;5.70;3.92;;;41.30;1.00;;;;;;5033333;28;20041;-82
2023/09/10 11:46:56;;;;;;;9.05;4.22;;;41.20;1.00;;;;;;5028095;28;20468;-82
2023/09/10 11:49:23;;;;;;;6.30;4.25;;;41.30;1.00;;;;;;5047093;28;20112;-82
2023/09/10 11:51:55;;;;;;;6.85;4.22;;;41.40;1.00;;;;;;5015810;28;20045;-83
2023/09/10 11:54:21;;;;;;;5.72;4.00;;;41.40;1.00;;;;;;5036639;28;20044;-83
2023/09/10 11:56:47;;;;;;;7.28;4.07;;;41.50;1.00;;;;;;5048980;28;20040;-83
2023/09/10 11:59:15;;;;;;;7.18;4.15;;;41.80;1.00;;;;;;5032527;28;20051;-83
2023/09/10 12:01:48;;;;;;;6.72;4.05;;;41.50;1.00;;;;;;5035952;28;20082;-82
2023/09/10 12:04:16;;;;;;;8.90;4.03;;;41.60;1.00;;;;;;5036026;28;20036;-82
2023/09/10 12:06:42;;;;;;;7.13;4.03;;;41.80;1.00;;;;;;5035731;28;20538;-82
2023/09/10 12:09:08;;;;;;;10.95;4.15;;;42.00;1.00;;;;;;5035008;28;20064;-82
2023/09/10 12:11:37;;;;;;;4.78;3.50;;;42.00;1.00;;;;;;5051570;28;20036;-82
2023/09/10 12:14:05;;;;;;;9.20;4.82;;;42.00;1.00;;;;;;5051849;28;20033;-82
2023/09/10 12:16:31;;;;;;;5.82;4.43;;;42.10;1.00;;;;;;5035221;28;20040;-83
2023/09/10 12:18:58;;;;;;;6.43;3.70;;;42.20;1.00;;;;;;5035473;28;20040;-83
2023/09/10 12:21:28;;;;;;;6.05;4.25;;;42.00;1.00;;;;;;5033895;28;20032;-83
2023/09/10 12:23:58;;;;;;;6.32;4.35;;;41.50;1.00;;;;;;5033379;28;20032;-83
2023/09/10 12:26:27;;;;;;;9.40;4.15;;;41.00;1.00;;;;;;5034029;28;20041;-83
2023/09/10 12:28:53;;;;;;;14.30;5.32;;;40.80;1.00;;;;;;5035975;28;20090;-81
2023/09/10 12:31:23;;;;;;;14.40;4.20;;;40.90;1.00;;;;;;5034585;28;20048;-82
2023/09/10 12:33:49;;;;;;;13.27;4.43;;;41.10;1.00;;;;;;5035780;28;20048;-82
2023/09/10 12:36:18;;;;;;;9.52;4.22;;;41.10;1.00;;;;;;5034984;28;20486;-83
2023/09/10 12:38:45;;;;;;;8.63;4.60;;;40.90;1.00;;;;;;5034536;28;20064;-82
2023/09/10 12:41:38;;;;;;;9.40;4.32;;;40.60;1.00;;;;;;5037010;28;20044;-82
2023/09/10 12:45:22;;;;;;;;;;;;;;;;;;;;;
2023/09/10 12:48:18;;;;;;;10.45;4.20;;;40.90;1.00;;;;;;5005848;28;20050;-83